Scottsburg, Oregon
Current Conditions -  °F | °C
As of 6:55 PM on Friday 21 Nov 2014 (Local Time) from KOTH Reporting Station
Overcast Overcast  
Wind Chill: 57°   Ceiling: 2200
Heat Index: 57°   Visibility: 2mi
Dew Point: 57°   Wind: 24mph
Humidity: 100%   Direction: 210°SSW
Pressure: 29.67"   Gusts: 32mph
Location:  43.65°N, 123.82°W
Report Text: KOTH 220255Z 21021G28KT 2SM SCT012 OVC022 14/14 A2967 RMK AO1 +RA P0016 60017 54000
Loading
Personal Weather Stations






























Interactive Weather Map New forecast layout! Learn more

10-Day Weather Forecast

Advertisements
Track Severe Weather on mobile